sensor_id;sensor_type;location;lat;lon;timestamp;temperature;humidity
6654;DHT22;3363;50.942;7.034;2023-09-19T00:00:30;21.00;66.10
6654;DHT22;3363;50.942;7.034;2023-09-19T00:02:57;21.10;64.20
6654;DHT22;3363;50.942;7.034;2023-09-19T00:05:26;21.10;65.90
6654;DHT22;3363;50.942;7.034;2023-09-19T00:07:53;21.10;65.30
6654;DHT22;3363;50.942;7.034;2023-09-19T00:10:20;21.00;65.90
6654;DHT22;3363;50.942;7.034;2023-09-19T00:12:48;21.10;65.80
6654;DHT22;3363;50.942;7.034;2023-09-19T00:15:15;21.10;65.60
6654;DHT22;3363;50.942;7.034;2023-09-19T00:17:43;21.00;65.70
6654;DHT22;3363;50.942;7.034;2023-09-19T00:20:10;21.10;65.20
6654;DHT22;3363;50.942;7.034;2023-09-19T00:22:40;21.10;65.30
6654;DHT22;3363;50.942;7.034;2023-09-19T00:25:08;21.00;65.30
6654;DHT22;3363;50.942;7.034;2023-09-19T00:27:37;20.80;65.30
6654;DHT22;3363;50.942;7.034;2023-09-19T00:30:07;20.80;65.60
6654;DHT22;3363;50.942;7.034;2023-09-19T00:32:39;20.80;65.40
6654;DHT22;3363;50.942;7.034;2023-09-19T00:35:06;20.70;64.30
6654;DHT22;3363;50.942;7.034;2023-09-19T00:37:33;20.60;65.30
6654;DHT22;3363;50.942;7.034;2023-09-19T00:40:01;20.70;65.40
6654;DHT22;3363;50.942;7.034;2023-09-19T00:42:28;20.80;65.40
6654;DHT22;3363;50.942;7.034;2023-09-19T00:44:54;20.90;65.10
6654;DHT22;3363;50.942;7.034;2023-09-19T00:47:21;20.90;64.80
6654;DHT22;3363;50.942;7.034;2023-09-19T00:49:48;20.90;64.70
6654;DHT22;3363;50.942;7.034;2023-09-19T00:52:18;20.90;64.20
6654;DHT22;3363;50.942;7.034;2023-09-19T00:54:45;20.90;64.30
6654;DHT22;3363;50.942;7.034;2023-09-19T00:57:13;20.90;64.20
6654;DHT22;3363;50.942;7.034;2023-09-19T00:59:44;20.90;64.00
6654;DHT22;3363;50.942;7.034;2023-09-19T01:02:11;20.90;64.00
6654;DHT22;3363;50.942;7.034;2023-09-19T01:04:39;21.00;63.90
6654;DHT22;3363;50.942;7.034;2023-09-19T01:07:07;21.00;63.60
6654;DHT22;3363;50.942;7.034;2023-09-19T01:09:33;20.90;64.10
6654;DHT22;3363;50.942;7.034;2023-09-19T01:12:01;20.90;64.10
6654;DHT22;3363;50.942;7.034;2023-09-19T01:14:31;20.90;64.30
6654;DHT22;3363;50.942;7.034;2023-09-19T01:17:03;20.90;64.10
6654;DHT22;3363;50.942;7.034;2023-09-19T01:19:42;20.90;64.20
6654;DHT22;3363;50.942;7.034;2023-09-19T01:22:16;20.80;62.70
6654;DHT22;3363;50.942;7.034;2023-09-19T01:27:53;20.80;64.10
6654;DHT22;3363;50.942;7.034;2023-09-19T01:30:26;20.80;63.20
6654;DHT22;3363;50.942;7.034;2023-09-19T01:32:54;20.70;64.00
6654;DHT22;3363;50.942;7.034;2023-09-19T01:35:22;20.60;63.90
6654;DHT22;3363;50.942;7.034;2023-09-19T01:37:49;20.50;64.70
6654;DHT22;3363;50.942;7.034;2023-09-19T01:40:16;20.50;64.70
6654;DHT22;3363;50.942;7.034;2023-09-19T01:42:45;20.40;64.00
6654;DHT22;3363;50.942;7.034;2023-09-19T01:45:13;20.50;64.90
6654;DHT22;3363;50.942;7.034;2023-09-19T01:47:43;20.30;64.80
6654;DHT22;3363;50.942;7.034;2023-09-19T01:50:13;20.40;65.00
6654;DHT22;3363;50.942;7.034;2023-09-19T01:52:46;20.30;63.20
6654;DHT22;3363;50.942;7.034;2023-09-19T01:55:14;20.20;65.30
6654;DHT22;3363;50.942;7.034;2023-09-19T01:57:46;20.40;64.80
6654;DHT22;3363;50.942;7.034;2023-09-19T02:00:15;20.40;64.60
6654;DHT22;3363;50.942;7.034;2023-09-19T02:02:45;20.40;64.40
6654;DHT22;3363;50.942;7.034;2023-09-19T02:05:13;20.40;64.60
6654;DHT22;3363;50.942;7.034;2023-09-19T02:07:48;20.00;65.40
6654;DHT22;3363;50.942;7.034;2023-09-19T02:10:15;20.20;64.60
6654;DHT22;3363;50.942;7.034;2023-09-19T02:12:42;20.30;63.10
6654;DHT22;3363;50.942;7.034;2023-09-19T02:15:10;20.30;63.60
6654;DHT22;3363;50.942;7.034;2023-09-19T02:17:37;20.10;62.60
6654;DHT22;3363;50.942;7.034;2023-09-19T02:20:05;20.10;64.00
6654;DHT22;3363;50.942;7.034;2023-09-19T02:22:40;20.20;63.50
6654;DHT22;3363;50.942;7.034;2023-09-19T02:25:07;20.30;63.40
6654;DHT22;3363;50.942;7.034;2023-09-19T02:27:34;20.30;63.30
6654;DHT22;3363;50.942;7.034;2023-09-19T02:30:01;20.40;62.90
6654;DHT22;3363;50.942;7.034;2023-09-19T02:32:29;20.30;63.30
6654;DHT22;3363;50.942;7.034;2023-09-19T02:34:56;20.10;62.60
6654;DHT22;3363;50.942;7.034;2023-09-19T02:37:25;20.20;63.00
6654;DHT22;3363;50.942;7.034;2023-09-19T02:39:52;20.20;63.00
6654;DHT22;3363;50.942;7.034;2023-09-19T02:42:18;20.30;62.80
6654;DHT22;3363;50.942;7.034;2023-09-19T02:44:45;20.10;62.80
6654;DHT22;3363;50.942;7.034;2023-09-19T02:47:13;20.30;62.80
6654;DHT22;3363;50.942;7.034;2023-09-19T02:49:42;20.20;62.70
6654;DHT22;3363;50.942;7.034;2023-09-19T02:52:08;20.20;62.40
6654;DHT22;3363;50.942;7.034;2023-09-19T02:54:37;20.20;62.70
6654;DHT22;3363;50.942;7.034;2023-09-19T02:57:04;20.10;62.70
6654;DHT22;3363;50.942;7.034;2023-09-19T02:59:32;20.10;62.00
6654;DHT22;3363;50.942;7.034;2023-09-19T03:02:02;19.90;61.60
6654;DHT22;3363;50.942;7.034;2023-09-19T03:04:30;20.00;63.00
6654;DHT22;3363;50.942;7.034;2023-09-19T03:06:56;19.90;62.60
6654;DHT22;3363;50.942;7.034;2023-09-19T03:09:25;19.80;62.70
6654;DHT22;3363;50.942;7.034;2023-09-19T03:11:54;19.80;63.20
6654;DHT22;3363;50.942;7.034;2023-09-19T03:14:20;19.70;62.80
6654;DHT22;3363;50.942;7.034;2023-09-19T03:16:49;19.60;62.20
6654;DHT22;3363;50.942;7.034;2023-09-19T03:19:17;19.70;63.20
6654;DHT22;3363;50.942;7.034;2023-09-19T03:21:46;19.80;62.90
6654;DHT22;3363;50.942;7.034;2023-09-19T03:24:16;19.90;62.50
6654;DHT22;3363;50.942;7.034;2023-09-19T03:26:42;19.90;61.20
6654;DHT22;3363;50.942;7.034;2023-09-19T03:29:12;19.90;62.50
6654;DHT22;3363;50.942;7.034;2023-09-19T03:31:39;19.80;62.60
6654;DHT22;3363;50.942;7.034;2023-09-19T03:34:06;19.80;62.50
6654;DHT22;3363;50.942;7.034;2023-09-19T03:36:41;19.60;62.30
6654;DHT22;3363;50.942;7.034;2023-09-19T03:39:08;19.50;63.40
6654;DHT22;3363;50.942;7.034;2023-09-19T03:41:36;19.70;63.00
6654;DHT22;3363;50.942;7.034;2023-09-19T03:44:02;19.80;62.60
6654;DHT22;3363;50.942;7.034;2023-09-19T03:46:31;19.60;61.50
6654;DHT22;3363;50.942;7.034;2023-09-19T03:48:57;19.70;62.80
6654;DHT22;3363;50.942;7.034;2023-09-19T03:51:24;19.80;62.50
6654;DHT22;3363;50.942;7.034;2023-09-19T03:53:51;19.80;62.50
6654;DHT22;3363;50.942;7.034;2023-09-19T03:56:17;19.80;62.40
6654;DHT22;3363;50.942;7.034;2023-09-19T03:58:44;19.80;62.10
6654;DHT22;3363;50.942;7.034;2023-09-19T04:01:10;19.80;62.70
6654;DHT22;3363;50.942;7.034;2023-09-19T04:03:39;19.80;62.40
6654;DHT22;3363;50.942;7.034;2023-09-19T04:06:12;19.70;62.40
6654;DHT22;3363;50.942;7.034;2023-09-19T04:08:39;19.70;62.40
6654;DHT22;3363;50.942;7.034;2023-09-19T04:11:06;19.70;62.70
6654;DHT22;3363;50.942;7.034;2023-09-19T04:13:33;19.80;62.40
6654;DHT22;3363;50.942;7.034;2023-09-19T04:15:59;19.80;62.10
6654;DHT22;3363;50.942;7.034;2023-09-19T04:18:26;19.70;62.50
6654;DHT22;3363;50.942;7.034;2023-09-19T04:20:54;19.60;62.80
6654;DHT22;3363;50.942;7.034;2023-09-19T04:23:21;19.60;62.40
6654;DHT22;3363;50.942;7.034;2023-09-19T04:25:48;19.50;63.20
6654;DHT22;3363;50.942;7.034;2023-09-19T04:28:14;19.60;62.90
6654;DHT22;3363;50.942;7.034;2023-09-19T04:30:41;19.70;62.70
6654;DHT22;3363;50.942;7.034;2023-09-19T04:33:08;19.60;62.80
6654;DHT22;3363;50.942;7.034;2023-09-19T04:35:34;19.60;62.60
6654;DHT22;3363;50.942;7.034;2023-09-19T04:38:02;19.70;62.70
6654;DHT22;3363;50.942;7.034;2023-09-19T04:40:31;19.70;62.70
6654;DHT22;3363;50.942;7.034;2023-09-19T04:42:58;19.70;61.90
6654;DHT22;3363;50.942;7.034;2023-09-19T04:45:25;19.60;63.00
6654;DHT22;3363;50.942;7.034;2023-09-19T04:47:53;19.60;63.00
6654;DHT22;3363;50.942;7.034;2023-09-19T04:50:19;19.60;63.00
6654;DHT22;3363;50.942;7.034;2023-09-19T04:52:48;19.60;62.70
6654;DHT22;3363;50.942;7.034;2023-09-19T04:55:17;19.60;62.80
6654;DHT22;3363;50.942;7.034;2023-09-19T04:57:44;19.70;62.90
6654;DHT22;3363;50.942;7.034;2023-09-19T05:00:13;19.60;62.80
6654;DHT22;3363;50.942;7.034;2023-09-19T05:02:42;19.60;62.90
6654;DHT22;3363;50.942;7.034;2023-09-19T05:05:08;19.60;62.60
6654;DHT22;3363;50.942;7.034;2023-09-19T05:07:36;19.60;62.70
6654;DHT22;3363;50.942;7.034;2023-09-19T05:10:03;19.60;62.60
6654;DHT22;3363;50.942;7.034;2023-09-19T05:12:33;19.60;62.60
6654;DHT22;3363;50.942;7.034;2023-09-19T05:15:01;19.60;62.70
6654;DHT22;3363;50.942;7.034;2023-09-19T05:17:28;19.60;62.60
6654;DHT22;3363;50.942;7.034;2023-09-19T05:19:54;19.50;62.80
6654;DHT22;3363;50.942;7.034;2023-09-19T05:22:21;19.50;62.30
6654;DHT22;3363;50.942;7.034;2023-09-19T05:24:49;19.50;62.50
6654;DHT22;3363;50.942;7.034;2023-09-19T05:27:16;19.40;62.60
6654;DHT22;3363;50.942;7.034;2023-09-19T05:29:44;19.40;62.70
6654;DHT22;3363;50.942;7.034;2023-09-19T05:32:11;19.40;62.50
6654;DHT22;3363;50.942;7.034;2023-09-19T05:34:38;19.10;61.60
6654;DHT22;3363;50.942;7.034;2023-09-19T05:37:04;18.70;61.20
6654;DHT22;3363;50.942;7.034;2023-09-19T05:39:32;18.60;62.00
6654;DHT22;3363;50.942;7.034;2023-09-19T05:41:59;18.60;62.90
6654;DHT22;3363;50.942;7.034;2023-09-19T05:44:26;18.70;62.30
6654;DHT22;3363;50.942;7.034;2023-09-19T05:46:54;18.90;62.20
6654;DHT22;3363;50.942;7.034;2023-09-19T05:49:22;19.00;61.80
6654;DHT22;3363;50.942;7.034;2023-09-19T05:51:49;19.00;61.70
6654;DHT22;3363;50.942;7.034;2023-09-19T05:54:19;18.90;61.70
6654;DHT22;3363;50.942;7.034;2023-09-19T05:56:46;18.80;62.20
6654;DHT22;3363;50.942;7.034;2023-09-19T05:59:14;18.80;62.10
6654;DHT22;3363;50.942;7.034;2023-09-19T06:01:41;18.90;61.60
6654;DHT22;3363;50.942;7.034;2023-09-19T06:04:09;18.90;62.00
6654;DHT22;3363;50.942;7.034;2023-09-19T06:06:36;18.90;60.80
6654;DHT22;3363;50.942;7.034;2023-09-19T06:09:04;18.90;61.90
6654;DHT22;3363;50.942;7.034;2023-09-19T06:11:31;19.00;61.70
6654;DHT22;3363;50.942;7.034;2023-09-19T06:13:59;18.90;61.70
6654;DHT22;3363;50.942;7.034;2023-09-19T06:16:27;18.90;61.80
6654;DHT22;3363;50.942;7.034;2023-09-19T06:18:54;18.90;62.20
6654;DHT22;3363;50.942;7.034;2023-09-19T06:21:22;18.90;62.10
6654;DHT22;3363;50.942;7.034;2023-09-19T06:23:49;18.90;62.20
6654;DHT22;3363;50.942;7.034;2023-09-19T06:26:15;18.90;62.10
6654;DHT22;3363;50.942;7.034;2023-09-19T06:28:42;18.90;62.00
6654;DHT22;3363;50.942;7.034;2023-09-19T06:31:09;18.80;61.90
6654;DHT22;3363;50.942;7.034;2023-09-19T06:33:36;18.90;61.80
6654;DHT22;3363;50.942;7.034;2023-09-19T06:36:04;18.90;61.80
6654;DHT22;3363;50.942;7.034;2023-09-19T06:38:32;19.00;61.70
6654;DHT22;3363;50.942;7.034;2023-09-19T06:41:01;19.00;61.50
6654;DHT22;3363;50.942;7.034;2023-09-19T06:43:30;18.90;61.20
6654;DHT22;3363;50.942;7.034;2023-09-19T06:45:58;18.90;61.60
6654;DHT22;3363;50.942;7.034;2023-09-19T06:48:25;19.00;61.70
6654;DHT22;3363;50.942;7.034;2023-09-19T06:50:52;19.00;60.80
6654;DHT22;3363;50.942;7.034;2023-09-19T06:53:20;18.80;62.00
6654;DHT22;3363;50.942;7.034;2023-09-19T06:55:49;18.90;62.00
6654;DHT22;3363;50.942;7.034;2023-09-19T06:58:15;18.80;62.00
6654;DHT22;3363;50.942;7.034;2023-09-19T07:00:42;18.70;60.40
6654;DHT22;3363;50.942;7.034;2023-09-19T07:03:09;18.80;62.40
6654;DHT22;3363;50.942;7.034;2023-09-19T07:05:37;18.70;62.00
6654;DHT22;3363;50.942;7.034;2023-09-19T07:08:04;18.80;61.20
6654;DHT22;3363;50.942;7.034;2023-09-19T07:10:32;18.90;61.90
6654;DHT22;3363;50.942;7.034;2023-09-19T07:13:00;18.80;61.10
6654;DHT22;3363;50.942;7.034;2023-09-19T07:15:28;18.80;61.50
6654;DHT22;3363;50.942;7.034;2023-09-19T07:17:56;18.80;62.00
6654;DHT22;3363;50.942;7.034;2023-09-19T07:20:23;18.80;61.80
6654;DHT22;3363;50.942;7.034;2023-09-19T07:22:51;18.80;61.90
6654;DHT22;3363;50.942;7.034;2023-09-19T07:25:20;18.90;61.60
6654;DHT22;3363;50.942;7.034;2023-09-19T07:27:46;18.90;62.00
6654;DHT22;3363;50.942;7.034;2023-09-19T07:30:14;18.90;61.60
6654;DHT22;3363;50.942;7.034;2023-09-19T07:32:41;19.00;61.50
6654;DHT22;3363;50.942;7.034;2023-09-19T07:35:08;19.10;61.30
6654;DHT22;3363;50.942;7.034;2023-09-19T07:37:35;19.00;61.40
6654;DHT22;3363;50.942;7.034;2023-09-19T07:40:01;18.90;60.60
6654;DHT22;3363;50.942;7.034;2023-09-19T07:42:32;18.90;61.60
6654;DHT22;3363;50.942;7.034;2023-09-19T07:45:00;18.90;61.60
6654;DHT22;3363;50.942;7.034;2023-09-19T07:47:28;18.80;61.90
6654;DHT22;3363;50.942;7.034;2023-09-19T07:49:55;19.00;61.70
6654;DHT22;3363;50.942;7.034;2023-09-19T07:52:22;18.90;61.70
6654;DHT22;3363;50.942;7.034;2023-09-19T07:54:49;18.90;61.40
6654;DHT22;3363;50.942;7.034;2023-09-19T07:57:16;19.00;60.80
6654;DHT22;3363;50.942;7.034;2023-09-19T07:59:42;18.90;61.60
6654;DHT22;3363;50.942;7.034;2023-09-19T08:02:09;18.90;61.80
6654;DHT22;3363;50.942;7.034;2023-09-19T08:04:42;18.90;61.60
6654;DHT22;3363;50.942;7.034;2023-09-19T08:07:09;18.80;60.60
6654;DHT22;3363;50.942;7.034;2023-09-19T08:09:36;18.80;61.70
6654;DHT22;3363;50.942;7.034;2023-09-19T08:12:04;18.80;61.70
6654;DHT22;3363;50.942;7.034;2023-09-19T08:14:30;19.00;61.70
6654;DHT22;3363;50.942;7.034;2023-09-19T08:16:58;18.80;60.60
6654;DHT22;3363;50.942;7.034;2023-09-19T08:19:25;18.90;62.10
6654;DHT22;3363;50.942;7.034;2023-09-19T08:21:56;18.90;61.30
6654;DHT22;3363;50.942;7.034;2023-09-19T08:24:24;19.00;61.20
6654;DHT22;3363;50.942;7.034;2023-09-19T08:26:52;19.00;60.60
6654;DHT22;3363;50.942;7.034;2023-09-19T08:29:19;18.90;60.20
6654;DHT22;3363;50.942;7.034;2023-09-19T08:31:46;19.00;61.40
6654;DHT22;3363;50.942;7.034;2023-09-19T08:34:14;19.00;60.30
6654;DHT22;3363;50.942;7.034;2023-09-19T08:36:41;19.00;61.50
6654;DHT22;3363;50.942;7.034;2023-09-19T08:39:10;19.00;60.80
6654;DHT22;3363;50.942;7.034;2023-09-19T08:41:39;19.10;60.00
6654;DHT22;3363;50.942;7.034;2023-09-19T08:44:05;18.90;60.20
6654;DHT22;3363;50.942;7.034;2023-09-19T08:46:34;18.80;61.20
6654;DHT22;3363;50.942;7.034;2023-09-19T08:49:03;18.90;61.10
6654;DHT22;3363;50.942;7.034;2023-09-19T08:51:30;19.00;61.20
6654;DHT22;3363;50.942;7.034;2023-09-19T08:54:02;19.10;60.70
6654;DHT22;3363;50.942;7.034;2023-09-19T08:56:31;19.20;60.10
6654;DHT22;3363;50.942;7.034;2023-09-19T08:58:59;19.20;60.70
6654;DHT22;3363;50.942;7.034;2023-09-19T09:01:27;19.30;59.90
6654;DHT22;3363;50.942;7.034;2023-09-19T09:03:54;19.30;60.20
6654;DHT22;3363;50.942;7.034;2023-09-19T09:06:21;19.30;60.20
6654;DHT22;3363;50.942;7.034;2023-09-19T09:08:48;19.50;60.40
6654;DHT22;3363;50.942;7.034;2023-09-19T09:11:16;19.50;59.00
6654;DHT22;3363;50.942;7.034;2023-09-19T09:13:45;19.60;59.20
6654;DHT22;3363;50.942;7.034;2023-09-19T09:16:12;19.70;58.60
6654;DHT22;3363;50.942;7.034;2023-09-19T09:18:38;19.60;57.70
6654;DHT22;3363;50.942;7.034;2023-09-19T09:21:05;19.60;57.30
6654;DHT22;3363;50.942;7.034;2023-09-19T09:23:32;19.60;58.20
6654;DHT22;3363;50.942;7.034;2023-09-19T09:25:59;19.60;57.70
6654;DHT22;3363;50.942;7.034;2023-09-19T09:28:28;19.80;57.40
6654;DHT22;3363;50.942;7.034;2023-09-19T09:30:57;19.60;57.30
6654;DHT22;3363;50.942;7.034;2023-09-19T09:33:24;19.60;57.30
6654;DHT22;3363;50.942;7.034;2023-09-19T09:35:52;19.70;57.40
6654;DHT22;3363;50.942;7.034;2023-09-19T09:38:22;19.90;56.00
6654;DHT22;3363;50.942;7.034;2023-09-19T09:40:51;20.00;55.40
6654;DHT22;3363;50.942;7.034;2023-09-19T09:43:25;20.00;56.30
6654;DHT22;3363;50.942;7.034;2023-09-19T09:46:06;20.00;55.90
6654;DHT22;3363;50.942;7.034;2023-09-19T09:48:44;20.10;55.00
6654;DHT22;3363;50.942;7.034;2023-09-19T09:51:17;20.00;54.30
6654;DHT22;3363;50.942;7.034;2023-09-19T09:54:08;20.10;55.20
6654;DHT22;3363;50.942;7.034;2023-09-19T09:56:41;20.40;54.00
6654;DHT22;3363;50.942;7.034;2023-09-19T09:59:18;20.50;52.60
6654;DHT22;3363;50.942;7.034;2023-09-19T10:01:50;20.50;53.10
6654;DHT22;3363;50.942;7.034;2023-09-19T10:04:27;20.50;53.00
6654;DHT22;3363;50.942;7.034;2023-09-19T10:06:54;20.40;53.30
6654;DHT22;3363;50.942;7.034;2023-09-19T10:09:21;20.30;54.00
6654;DHT22;3363;50.942;7.034;2023-09-19T10:12:00;20.40;53.40
6654;DHT22;3363;50.942;7.034;2023-09-19T10:14:30;20.30;50.90
6654;DHT22;3363;50.942;7.034;2023-09-19T10:16:59;20.30;52.90
6654;DHT22;3363;50.942;7.034;2023-09-19T10:19:29;20.30;52.70
6654;DHT22;3363;50.942;7.034;2023-09-19T10:21:59;20.30;52.90
6654;DHT22;3363;50.942;7.034;2023-09-19T10:24:28;20.30;52.30
6654;DHT22;3363;50.942;7.034;2023-09-19T10:26:56;20.30;52.30
6654;DHT22;3363;50.942;7.034;2023-09-19T10:29:23;20.30;51.30
6654;DHT22;3363;50.942;7.034;2023-09-19T10:31:51;20.50;51.50
6654;DHT22;3363;50.942;7.034;2023-09-19T10:34:20;20.70;51.90
6654;DHT22;3363;50.942;7.034;2023-09-19T10:36:47;20.80;51.50
6654;DHT22;3363;50.942;7.034;2023-09-19T10:39:15;20.80;51.40
6654;DHT22;3363;50.942;7.034;2023-09-19T10:41:47;21.00;50.50
6654;DHT22;3363;50.942;7.034;2023-09-19T10:44:19;20.80;50.70
6654;DHT22;3363;50.942;7.034;2023-09-19T10:46:48;20.80;50.50
6654;DHT22;3363;50.942;7.034;2023-09-19T10:49:15;20.70;52.80
6654;DHT22;3363;50.942;7.034;2023-09-19T10:51:43;20.50;51.90
6654;DHT22;3363;50.942;7.034;2023-09-19T10:54:11;20.60;50.60
6654;DHT22;3363;50.942;7.034;2023-09-19T10:56:41;20.60;51.20
6654;DHT22;3363;50.942;7.034;2023-09-19T10:59:11;20.70;51.50
6654;DHT22;3363;50.942;7.034;2023-09-19T11:01:44;20.70;50.00
6654;DHT22;3363;50.942;7.034;2023-09-19T11:04:26;20.60;51.30
6654;DHT22;3363;50.942;7.034;2023-09-19T11:07:01;20.70;50.00
6654;DHT22;3363;50.942;7.034;2023-09-19T11:09:42;20.60;51.60
6654;DHT22;3363;50.942;7.034;2023-09-19T11:12:11;20.50;51.30
6654;DHT22;3363;50.942;7.034;2023-09-19T11:14:38;20.70;50.90
6654;DHT22;3363;50.942;7.034;2023-09-19T11:25:44;21.10;48.00
6654;DHT22;3363;50.942;7.034;2023-09-19T11:33:49;21.00;48.90
6654;DHT22;3363;50.942;7.034;2023-09-19T11:36:36;21.20;49.00
6654;DHT22;3363;50.942;7.034;2023-09-19T11:39:04;21.20;49.20
6654;DHT22;3363;50.942;7.034;2023-09-19T11:41:41;21.20;50.30
6654;DHT22;3363;50.942;7.034;2023-09-19T11:46:55;21.10;49.50
6654;DHT22;3363;50.942;7.034;2023-09-19T11:49:25;21.00;49.10
6654;DHT22;3363;50.942;7.034;2023-09-19T11:51:55;20.90;49.60
6654;DHT22;3363;50.942;7.034;2023-09-19T11:54:22;20.80;49.60
6654;DHT22;3363;50.942;7.034;2023-09-19T11:56:52;20.80;49.90
6654;DHT22;3363;50.942;7.034;2023-09-19T11:59:20;20.80;49.80
6654;DHT22;3363;50.942;7.034;2023-09-19T12:01:50;20.90;49.70
6654;DHT22;3363;50.942;7.034;2023-09-19T12:04:33;21.10;50.50
6654;DHT22;3363;50.942;7.034;2023-09-19T12:07:00;21.20;49.10
6654;DHT22;3363;50.942;7.034;2023-09-19T12:09:27;21.50;46.60
6654;DHT22;3363;50.942;7.034;2023-09-19T12:11:55;21.60;45.30
6654;DHT22;3363;50.942;7.034;2023-09-19T12:14:23;21.50;46.80
6654;DHT22;3363;50.942;7.034;2023-09-19T12:16:51;21.70;46.50
6654;DHT22;3363;50.942;7.034;2023-09-19T12:19:21;21.80;45.70
6654;DHT22;3363;50.942;7.034;2023-09-19T12:21:55;21.90;43.80
6654;DHT22;3363;50.942;7.034;2023-09-19T12:24:23;21.90;44.60
6654;DHT22;3363;50.942;7.034;2023-09-19T12:26:51;21.90;43.90
6654;DHT22;3363;50.942;7.034;2023-09-19T12:29:21;22.00;42.30
6654;DHT22;3363;50.942;7.034;2023-09-19T12:31:49;21.90;42.00
6654;DHT22;3363;50.942;7.034;2023-09-19T12:34:19;22.00;41.90
6654;DHT22;3363;50.942;7.034;2023-09-19T12:36:46;22.00;42.00
6654;DHT22;3363;50.942;7.034;2023-09-19T12:39:22;22.20;42.10
6654;DHT22;3363;50.942;7.034;2023-09-19T12:41:48;22.20;42.00
6654;DHT22;3363;50.942;7.034;2023-09-19T12:44:16;22.10;42.40
6654;DHT22;3363;50.942;7.034;2023-09-19T12:46:44;22.10;41.40
6654;DHT22;3363;50.942;7.034;2023-09-19T12:49:14;22.30;42.80
6654;DHT22;3363;50.942;7.034;2023-09-19T12:51:42;22.20;40.10
6654;DHT22;3363;50.942;7.034;2023-09-19T12:54:10;22.30;42.50
6654;DHT22;3363;50.942;7.034;2023-09-19T12:56:40;22.30;40.80
6654;DHT22;3363;50.942;7.034;2023-09-19T12:59:10;22.30;42.80
6654;DHT22;3363;50.942;7.034;2023-09-19T13:01:38;22.30;42.20
6654;DHT22;3363;50.942;7.034;2023-09-19T13:04:12;22.20;41.40
6654;DHT22;3363;50.942;7.034;2023-09-19T13:06:40;22.30;42.90
6654;DHT22;3363;50.942;7.034;2023-09-19T13:09:09;22.20;41.10
6654;DHT22;3363;50.942;7.034;2023-09-19T13:11:37;22.30;41.90
6654;DHT22;3363;50.942;7.034;2023-09-19T13:14:16;22.30;42.10
6654;DHT22;3363;50.942;7.034;2023-09-19T13:16:52;22.20;42.30
6654;DHT22;3363;50.942;7.034;2023-09-19T13:19:35;22.20;43.10
6654;DHT22;3363;50.942;7.034;2023-09-19T13:22:03;22.10;41.50
6654;DHT22;3363;50.942;7.034;2023-09-19T13:24:29;21.60;43.00
6654;DHT22;3363;50.942;7.034;2023-09-19T13:26:58;21.70;43.10
6654;DHT22;3363;50.942;7.034;2023-09-19T13:29:25;21.60;43.30
6654;DHT22;3363;50.942;7.034;2023-09-19T13:31:52;21.50;44.20
6654;DHT22;3363;50.942;7.034;2023-09-19T13:34:19;21.70;43.80
6654;DHT22;3363;50.942;7.034;2023-09-19T13:36:47;21.70;43.40
6654;DHT22;3363;50.942;7.034;2023-09-19T13:39:14;21.80;44.30
6654;DHT22;3363;50.942;7.034;2023-09-19T13:41:41;21.60;43.90
6654;DHT22;3363;50.942;7.034;2023-09-19T13:44:08;21.60;44.90
6654;DHT22;3363;50.942;7.034;2023-09-19T13:46:35;21.80;43.60
6654;DHT22;3363;50.942;7.034;2023-09-19T13:49:02;21.60;43.80
6654;DHT22;3363;50.942;7.034;2023-09-19T13:51:30;21.50;45.00
6654;DHT22;3363;50.942;7.034;2023-09-19T13:53:58;21.30;45.10
6654;DHT22;3363;50.942;7.034;2023-09-19T13:56:25;21.20;46.20
6654;DHT22;3363;50.942;7.034;2023-09-19T13:58:53;21.40;45.50
6654;DHT22;3363;50.942;7.034;2023-09-19T14:01:20;21.70;44.60
6654;DHT22;3363;50.942;7.034;2023-09-19T14:03:46;22.00;44.00
6654;DHT22;3363;50.942;7.034;2023-09-19T14:06:15;22.00;42.90
6654;DHT22;3363;50.942;7.034;2023-09-19T14:08:42;21.70;44.30
6654;DHT22;3363;50.942;7.034;2023-09-19T14:11:10;21.70;44.60
6654;DHT22;3363;50.942;7.034;2023-09-19T14:13:36;21.60;44.00
6654;DHT22;3363;50.942;7.034;2023-09-19T14:16:03;21.40;45.20
6654;DHT22;3363;50.942;7.034;2023-09-19T14:18:31;21.50;47.80
6654;DHT22;3363;50.942;7.034;2023-09-19T14:20:58;21.40;45.00
6654;DHT22;3363;50.942;7.034;2023-09-19T14:23:28;21.40;45.20
6654;DHT22;3363;50.942;7.034;2023-09-19T14:25:55;21.00;46.00
6654;DHT22;3363;50.942;7.034;2023-09-19T14:28:23;21.00;47.30
6654;DHT22;3363;50.942;7.034;2023-09-19T14:30:50;21.10;46.70
6654;DHT22;3363;50.942;7.034;2023-09-19T14:33:17;21.30;46.10
6654;DHT22;3363;50.942;7.034;2023-09-19T14:35:44;21.30;45.90
6654;DHT22;3363;50.942;7.034;2023-09-19T14:38:10;21.30;45.90
6654;DHT22;3363;50.942;7.034;2023-09-19T14:40:37;21.30;46.00
6654;DHT22;3363;50.942;7.034;2023-09-19T14:43:05;21.40;45.70
6654;DHT22;3363;50.942;7.034;2023-09-19T14:45:36;21.50;45.90
6654;DHT22;3363;50.942;7.034;2023-09-19T14:48:03;21.40;44.70
6654;DHT22;3363;50.942;7.034;2023-09-19T14:50:30;21.40;45.80
6654;DHT22;3363;50.942;7.034;2023-09-19T14:52:58;21.40;45.90
6654;DHT22;3363;50.942;7.034;2023-09-19T14:55:27;21.40;44.70
6654;DHT22;3363;50.942;7.034;2023-09-19T14:57:55;21.40;45.70
6654;DHT22;3363;50.942;7.034;2023-09-19T15:00:24;21.40;46.70
6654;DHT22;3363;50.942;7.034;2023-09-19T15:02:51;21.30;46.50
6654;DHT22;3363;50.942;7.034;2023-09-19T15:05:19;21.50;46.20
6654;DHT22;3363;50.942;7.034;2023-09-19T15:07:45;21.40;45.70
6654;DHT22;3363;50.942;7.034;2023-09-19T15:10:12;21.30;46.30
6654;DHT22;3363;50.942;7.034;2023-09-19T15:12:39;21.30;46.50
6654;DHT22;3363;50.942;7.034;2023-09-19T15:15:05;21.40;46.30
6654;DHT22;3363;50.942;7.034;2023-09-19T15:17:33;21.30;46.60
6654;DHT22;3363;50.942;7.034;2023-09-19T15:20:01;21.40;46.40
6654;DHT22;3363;50.942;7.034;2023-09-19T15:22:28;21.40;46.40
6654;DHT22;3363;50.942;7.034;2023-09-19T15:24:55;21.30;47.10
6654;DHT22;3363;50.942;7.034;2023-09-19T15:27:21;21.20;46.00
6654;DHT22;3363;50.942;7.034;2023-09-19T15:29:48;21.20;46.90
6654;DHT22;3363;50.942;7.034;2023-09-19T15:32:15;21.20;47.10
6654;DHT22;3363;50.942;7.034;2023-09-19T15:34:41;21.20;47.20
6654;DHT22;3363;50.942;7.034;2023-09-19T15:37:09;21.20;46.10
6654;DHT22;3363;50.942;7.034;2023-09-19T15:39:36;21.20;47.40
6654;DHT22;3363;50.942;7.034;2023-09-19T15:42:03;21.30;46.20
6654;DHT22;3363;50.942;7.034;2023-09-19T15:44:30;21.30;46.60
6654;DHT22;3363;50.942;7.034;2023-09-19T15:46:58;21.20;46.10
6654;DHT22;3363;50.942;7.034;2023-09-19T15:49:24;21.10;47.00
6654;DHT22;3363;50.942;7.034;2023-09-19T15:51:51;21.20;47.10
6654;DHT22;3363;50.942;7.034;2023-09-19T15:54:19;21.10;45.10
6654;DHT22;3363;50.942;7.034;2023-09-19T15:56:46;21.20;47.00
6654;DHT22;3363;50.942;7.034;2023-09-19T15:59:14;21.20;47.50
6654;DHT22;3363;50.942;7.034;2023-09-19T16:01:41;21.20;45.90
6654;DHT22;3363;50.942;7.034;2023-09-19T16:04:08;21.20;46.70
6654;DHT22;3363;50.942;7.034;2023-09-19T16:06:35;21.20;46.50
6654;DHT22;3363;50.942;7.034;2023-09-19T16:09:03;21.10;46.70
6654;DHT22;3363;50.942;7.034;2023-09-19T16:11:33;21.10;47.40
6654;DHT22;3363;50.942;7.034;2023-09-19T16:14:00;21.10;47.40
6654;DHT22;3363;50.942;7.034;2023-09-19T16:16:28;21.10;47.10
6654;DHT22;3363;50.942;7.034;2023-09-19T16:18:56;21.10;47.40
6654;DHT22;3363;50.942;7.034;2023-09-19T16:21:26;21.10;46.50
6654;DHT22;3363;50.942;7.034;2023-09-19T16:23:53;21.20;47.50
6654;DHT22;3363;50.942;7.034;2023-09-19T16:26:20;21.20;46.90
6654;DHT22;3363;50.942;7.034;2023-09-19T16:28:49;21.30;47.60